Time;durP1;ratioP1;P1;durP2;ratioP2;P2;SDS_P1;SDS_P2;PMS_P1;PMS_P2;Temp;Humidity;BMP_temperature;BMP_pressure;BME280_temperature;BME280_humidity;BME280_pressure;Samples;Min_cycle;Max_cycle;Signal;HPM_P1;HPM_P2
2021/10/25 00:01:09;;;;;;;9.50;3.50;;;;;;;-149.78;100.00;50369.75;5065781;28;20071;-71
2021/10/25 00:03:35;;;;;;;9.55;3.00;;;;;;;-149.78;100.00;50397.13;5066010;28;20040;-71
2021/10/25 00:06:02;;;;;;;9.50;2.92;;;;;;;-149.78;100.00;50363.88;5072842;28;20025;-71
2021/10/25 00:08:28;;;;;;;7.85;3.10;;;;;;;-149.78;100.00;50377.56;5057002;28;20373;-71
2021/10/25 00:10:53;;;;;;;10.10;2.92;;;;;;;-149.78;100.00;50361.91;5067350;28;20021;-71
2021/10/25 00:13:19;;;;;;;9.48;2.92;;;;;;;-149.78;100.00;50371.69;5064580;28;20079;-70
2021/10/25 00:15:45;;;;;;;11.82;2.67;;;;;;;-149.78;100.00;50393.22;5067098;28;20039;-70
2021/10/25 00:18:11;;;;;;;7.15;2.55;;;;;;;-149.78;100.00;50373.66;5059968;28;20055;-70
2021/10/25 00:20:37;;;;;;;11.35;3.15;;;;;;;-149.78;100.00;50377.56;5055518;28;20033;-70
2021/10/25 00:23:03;;;;;;;15.93;2.95;;;;;;;-149.78;100.00;50361.91;5072103;28;20036;-71
2021/10/25 00:25:30;;;;;;;6.07;2.53;;;;;;;-149.78;100.00;50346.28;5068942;28;20033;-71
2021/10/25 00:27:56;;;;;;;14.68;3.17;;;;;;;-149.78;100.00;50377.56;5063926;28;20040;-70
2021/10/25 00:30:22;;;;;;;14.48;3.17;;;;;;;-149.78;100.00;50365.84;5063436;28;20075;-70
2021/10/25 00:32:48;;;;;;;11.02;2.85;;;;;;;-149.78;100.00;50397.13;5060382;28;20746;-71
2021/10/25 00:35:14;;;;;;;8.18;2.35;;;;;;;-149.78;100.00;50365.84;5066421;28;20028;-70
2021/10/25 00:37:39;;;;;;;9.25;2.97;;;;;;;-149.78;100.00;50379.53;5063582;28;20146;-71
2021/10/25 00:40:07;;;;;;;18.23;3.08;;;;;;;-149.78;100.00;50365.84;5065493;28;20365;-71
2021/10/25 00:42:33;;;;;;;7.72;3.28;;;;;;;-149.78;100.00;50365.84;5059816;28;20039;-70
2021/10/25 00:44:59;;;;;;;11.23;2.75;;;;;;;-149.78;100.00;50377.56;5059608;28;20029;-70
2021/10/25 00:47:25;;;;;;;10.00;3.47;;;;;;;-149.78;100.00;50369.75;5057681;28;20451;-70
2021/10/25 00:49:51;;;;;;;10.77;3.05;;;;;;;-149.78;100.00;50373.66;5069306;28;20089;-70
2021/10/25 00:52:18;;;;;;;12.40;3.25;;;;;;;-149.78;100.00;50361.91;5063985;28;20048;-70
2021/10/25 00:54:45;;;;;;;6.78;2.75;;;;;;;-149.78;100.00;50389.31;5071867;28;20601;-71
2021/10/25 00:57:11;;;;;;;13.60;3.05;;;;;;;-149.78;100.00;50385.38;5059306;28;20057;-70
2021/10/25 00:59:37;;;;;;;13.80;3.40;;;;;;;-149.78;100.00;50408.84;5068944;28;20037;-71
2021/10/25 01:02:03;;;;;;;9.90;3.00;;;;;;;-149.78;100.00;50373.66;5064738;28;20490;-72
2021/10/25 01:04:29;;;;;;;15.63;4.20;;;;;;;-149.78;100.00;50401.03;5062838;28;20104;-70
2021/10/25 01:06:55;;;;;;;12.25;3.00;;;;;;;-149.78;100.00;50403.00;5067347;28;20123;-71
2021/10/25 01:09:23;;;;;;;11.23;3.10;;;;;;;-149.78;100.00;50377.56;5071113;28;20400;-72
2021/10/25 01:11:50;;;;;;;9.63;3.28;;;;;;;-149.78;100.00;50379.53;5058769;28;20060;-73
2021/10/25 01:14:17;;;;;;;21.30;3.53;;;;;;;-149.78;100.00;50361.91;5060601;28;20418;-73
2021/10/25 01:16:44;;;;;;;14.57;3.35;;;;;;;-149.78;100.00;50385.38;5070159;28;20044;-71
2021/10/25 01:19:10;;;;;;;8.25;2.90;;;;;;;-149.78;100.00;50406.91;5066403;28;20365;-70
2021/10/25 01:21:36;;;;;;;14.75;3.00;;;;;;;-149.78;100.00;50377.56;5057903;28;20035;-70
2021/10/25 01:24:02;;;;;;;17.65;3.22;;;;;;;-149.78;100.00;50408.84;5062704;28;20032;-71
2021/10/25 01:26:28;;;;;;;9.48;3.47;;;;;;;-149.78;100.00;50385.38;5061200;28;20029;-71
2021/10/25 01:28:54;;;;;;;16.00;3.55;;;;;;;-149.78;100.00;50350.19;5054484;28;20578;-70
2021/10/25 01:31:22;;;;;;;9.60;2.92;;;;;;;-149.78;100.00;50395.16;5060394;28;20118;-71
2021/10/25 01:33:50;;;;;;;15.77;3.20;;;;;;;-149.78;100.00;50416.69;5058399;28;20032;-69
2021/10/25 01:36:16;;;;;;;9.50;3.88;;;;;;;-149.78;100.00;50393.22;5062315;28;20025;-71
2021/10/25 01:38:42;;;;;;;12.32;3.63;;;;;;;-149.78;100.00;50412.78;5058187;28;20037;-71
2021/10/25 01:41:09;;;;;;;12.52;3.30;;;;;;;-149.78;100.00;50401.03;5065508;28;20097;-71
2021/10/25 01:43:36;;;;;;;14.15;3.65;;;;;;;-149.78;100.00;50369.75;5065151;28;20393;-72
2021/10/25 01:46:08;;;;;;;18.42;3.85;;;;;;;-149.78;100.00;50373.66;5061691;28;20113;-71
2021/10/25 01:48:34;;;;;;;12.98;3.58;;;;;;;-149.78;100.00;50395.16;5065554;28;20392;-72
2021/10/25 01:50:59;;;;;;;11.23;4.28;;;;;;;-149.78;100.00;50373.66;5059961;28;20020;-71
2021/10/25 01:53:27;;;;;;;11.75;3.17;;;;;;;-149.78;100.00;50412.78;5062358;28;20600;-71
2021/10/25 01:55:59;;;;;;;14.20;3.38;;;;;;;-149.78;100.00;50385.38;5043816;28;20036;-71
2021/10/25 01:58:25;;;;;;;;;;;;;;;-149.78;100.00;50397.13;5061433;28;20029;-71
2021/10/25 02:00:51;;;;;;;12.20;3.63;;;;;;;-149.78;100.00;50404.94;5047937;28;20364;-71
2021/10/25 02:03:17;;;;;;;21.35;3.72;;;;;;;-149.78;100.00;50375.63;5058841;28;20457;-71
2021/10/25 02:05:43;;;;;;;11.75;3.30;;;;;;;-149.78;100.00;50395.16;5072982;28;20044;-71
2021/10/25 02:08:09;;;;;;;11.55;3.33;;;;;;;-149.78;100.00;50408.84;5066132;28;20565;-72
2021/10/25 02:10:35;;;;;;;14.85;3.72;;;;;;;-149.78;100.00;50408.84;5057076;28;20033;-72
2021/10/25 02:13:01;;;;;;;10.80;2.88;;;;;;;-149.78;100.00;50391.25;5060140;28;20499;-71
2021/10/25 02:15:26;;;;;;;9.25;3.20;;;;;;;-149.78;100.00;50393.22;5065462;28;20121;-72
2021/10/25 02:17:52;;;;;;;20.92;3.85;;;;;;;-149.78;100.00;50385.38;5067897;28;20039;-72
2021/10/25 02:20:19;;;;;;;15.48;3.05;;;;;;;-149.78;100.00;50416.69;5057793;28;20499;-72
2021/10/25 02:22:44;;;;;;;16.05;3.33;;;;;;;-149.78;100.00;50369.75;5066410;28;20032;-72
2021/10/25 02:25:10;;;;;;;11.98;3.63;;;;;;;-149.78;100.00;50381.47;5061408;28;20033;-73
2021/10/25 02:27:35;;;;;;;12.38;2.97;;;;;;;-149.78;100.00;50377.56;5064892;28;20484;-72
2021/10/25 02:30:02;;;;;;;10.65;3.30;;;;;;;-149.78;100.00;50381.47;5061803;28;20090;-72
2021/10/25 02:32:28;;;;;;;16.95;2.95;;;;;;;-149.78;100.00;50408.84;5046468;28;20025;-72
2021/10/25 02:34:53;;;;;;;14.77;2.85;;;;;;;-149.78;100.00;50363.88;5055841;28;20357;-72
2021/10/25 02:37:19;;;;;;;14.10;3.22;;;;;;;-149.78;100.00;50385.38;5062142;28;20391;-72
2021/10/25 02:39:46;;;;;;;15.05;2.70;;;;;;;-149.78;100.00;50371.69;5058672;28;20116;-72
2021/10/25 02:42:12;;;;;;;17.83;2.70;;;;;;;-149.78;100.00;50408.84;5056533;28;20116;-72
2021/10/25 02:44:39;;;;;;;15.85;2.45;;;;;;;-149.78;100.00;50365.84;5060222;28;20048;-72
2021/10/25 02:47:05;;;;;;;16.23;2.55;;;;;;;-149.78;100.00;50404.94;5045187;28;20029;-71
2021/10/25 02:49:31;;;;;;;12.75;2.97;;;;;;;-149.78;100.00;50361.91;5063370;28;20107;-71
2021/10/25 02:51:57;;;;;;;11.80;2.90;;;;;;;-149.78;100.00;50399.09;5039153;28;20473;-71
2021/10/25 02:54:24;;;;;;;19.40;3.58;;;;;;;-149.78;100.00;50420.59;5070022;28;20037;-73
2021/10/25 02:56:53;;;;;;;13.40;3.63;;;;;;;-149.78;100.00;50381.47;5058444;28;20078;-72
2021/10/25 02:59:20;;;;;;;12.40;3.75;;;;;;;-149.78;100.00;50381.47;5071477;28;20460;-73
2021/10/25 03:01:46;;;;;;;10.98;3.13;;;;;;;-149.78;100.00;50381.47;5059045;28;20041;-72
2021/10/25 03:04:12;;;;;;;11.18;3.42;;;;;;;-149.78;100.00;50401.03;5071171;28;20024;-73
2021/10/25 03:06:38;;;;;;;14.35;3.05;;;;;;;-149.78;100.00;50412.78;5074928;28;20062;-73
2021/10/25 03:09:05;;;;;;;16.13;3.38;;;;;;;-149.78;100.00;50393.22;5056450;28;20100;-73
2021/10/25 03:11:32;;;;;;;15.88;4.00;;;;;;;-149.78;100.00;50410.81;5058838;28;20040;-72
2021/10/25 03:13:58;;;;;;;12.75;3.30;;;;;;;-149.78;100.00;50389.31;5056629;28;20116;-71
2021/10/25 03:16:24;;;;;;;9.13;3.10;;;;;;;-149.78;100.00;50401.03;5065778;28;20483;-72
2021/10/25 03:18:50;;;;;;;14.25;3.47;;;;;;;-149.78;100.00;50397.13;5058173;28;20037;-71
2021/10/25 03:21:20;;;;;;;17.25;4.70;;;;;;;-149.78;100.00;50381.47;5066081;28;20469;-72
2021/10/25 03:23:46;;;;;;;15.13;4.20;;;;;;;-149.78;100.00;50412.78;5068294;28;20036;-72
2021/10/25 03:26:12;;;;;;;13.60;3.72;;;;;;;-149.78;100.00;50397.13;5067671;28;20507;-71
2021/10/25 03:28:37;;;;;;;19.95;4.13;;;;;;;-149.78;100.00;50389.31;5073499;28;20040;-70
2021/10/25 03:31:04;;;;;;;13.40;4.28;;;;;;;-149.78;100.00;50401.03;5056634;28;20029;-72
2021/10/25 03:33:33;;;;;;;16.80;4.20;;;;;;;-149.78;100.00;50416.69;5067679;28;20027;-73
2021/10/25 03:36:02;;;;;;;10.48;3.72;;;;;;;-149.78;100.00;50420.59;5070886;28;20072;-72
2021/10/25 03:38:30;;;;;;;12.40;3.90;;;;;;;-149.78;100.00;50432.31;5069107;28;20078;-73
2021/10/25 03:40:56;;;;;;;10.30;4.35;;;;;;;-149.78;100.00;50385.38;5054887;28;20128;-73
2021/10/25 03:43:25;;;;;;;16.33;5.43;;;;;;;-149.78;100.00;50373.66;5054793;28;20133;-72
2021/10/25 03:45:56;;;;;;;15.38;4.22;;;;;;;-149.78;100.00;50381.47;5063153;28;20037;-71
2021/10/25 03:50:50;;;;;;;15.70;4.85;;;;;;;-149.78;100.00;50420.59;5073774;28;20048;-73
2021/10/25 03:53:27;;;;;;;15.65;4.70;;;;;;;-149.78;100.00;50404.94;5071032;28;20052;-73
2021/10/25 04:30:21;;;;;;;21.92;7.88;;;;;;;-149.78;100.00;50385.38;5074001;28;20036;-72
2021/10/25 04:32:48;;;;;;;16.38;5.38;;;;;;;-149.78;100.00;50410.81;5072603;28;20033;-72
2021/10/25 04:35:14;;;;;;;20.77;6.70;;;;;;;-149.78;100.00;50397.13;5059382;28;20021;-72
2021/10/25 04:37:41;;;;;;;21.02;5.32;;;;;;;-149.78;100.00;50389.31;5072176;28;20119;-71
2021/10/25 04:40:09;;;;;;;17.20;5.18;;;;;;;-149.78;100.00;50391.25;5066571;28;20033;-73
2021/10/25 04:42:35;;;;;;;11.43;4.20;;;;;;;-149.78;100.00;50397.13;5056594;28;20040;-73
2021/10/25 04:45:02;;;;;;;14.07;4.25;;;;;;;-149.78;100.00;50430.38;5072122;28;20111;-71
2021/10/25 04:47:28;;;;;;;18.90;3.60;;;;;;;-149.78;100.00;50416.69;5071207;28;20041;-72
2021/10/25 04:49:54;;;;;;;17.02;4.15;;;;;;;-149.78;100.00;50397.13;5071119;28;20040;-72
2021/10/25 04:52:20;;;;;;;14.98;4.07;;;;;;;-149.78;100.00;50377.56;5065554;28;20036;-72
2021/10/25 04:54:45;;;;;;;10.10;3.45;;;;;;;-149.78;100.00;50424.50;5069547;28;20039;-71
2021/10/25 04:57:11;;;;;;;13.18;3.53;;;;;;;-149.78;100.00;50401.03;5060147;28;20040;-72
2021/10/25 04:59:37;;;;;;;10.40;3.85;;;;;;;-149.78;100.00;50393.22;5063457;28;20049;-72
2021/10/25 05:02:04;;;;;;;12.65;3.38;;;;;;;-149.78;100.00;50412.78;5065728;28;20480;-71
2021/10/25 05:04:32;;;;;;;14.45;3.08;;;;;;;-149.78;100.00;50403.00;5060522;28;20043;-71
2021/10/25 05:06:58;;;;;;;8.52;3.00;;;;;;;-149.78;100.00;50412.78;5067418;28;20036;-69
2021/10/25 05:09:23;;;;;;;11.20;3.25;;;;;;;-149.78;100.00;50397.13;5053579;28;20024;-69
2021/10/25 05:11:49;;;;;;;6.82;2.75;;;;;;;-149.78;100.00;50420.59;5058541;28;20037;-69
2021/10/25 05:14:15;;;;;;;10.15;3.15;;;;;;;-149.78;100.00;50440.16;5072476;28;20454;-69
2021/10/25 05:16:40;;;;;;;10.65;2.83;;;;;;;-149.78;100.00;50404.94;5059467;28;20039;-69
2021/10/25 05:19:06;;;;;;;13.02;3.65;;;;;;;-149.78;100.00;50387.34;5047174;28;20029;-70
2021/10/25 05:21:32;;;;;;;17.38;3.40;;;;;;;-149.78;100.00;50408.84;5059699;28;20033;-69
2021/10/25 05:23:58;;;;;;;9.00;2.80;;;;;;;-149.78;100.00;50440.16;5069115;28;20077;-70
2021/10/25 05:26:23;;;;;;;15.85;2.63;;;;;;;-149.78;100.00;50397.13;5055232;28;20029;-69
2021/10/25 05:28:49;;;;;;;9.50;2.97;;;;;;;-149.78;100.00;50449.94;5063306;28;20426;-69
2021/10/25 05:31:15;;;;;;;11.32;2.92;;;;;;;-149.78;100.00;50395.16;5054238;28;20067;-69
2021/10/25 05:33:40;;;;;;;9.13;2.83;;;;;;;-149.78;100.00;50373.66;5072825;28;20056;-70
2021/10/25 05:36:08;;;;;;;12.80;2.80;;;;;;;-149.78;100.00;50389.31;5056806;28;20032;-69
2021/10/25 05:38:34;;;;;;;13.38;2.70;;;;;;;-149.78;100.00;50416.69;5061008;28;20041;-69
2021/10/25 05:41:02;;;;;;;9.65;3.08;;;;;;;-149.78;100.00;50479.28;5062980;28;20036;-69
2021/10/25 05:43:27;;;;;;;10.32;2.75;;;;;;;-149.78;100.00;50414.72;5069509;28;20032;-69
2021/10/25 05:45:53;;;;;;;15.43;3.20;;;;;;;-149.78;100.00;50412.78;5063784;28;20033;-69
2021/10/25 05:48:19;;;;;;;14.52;3.33;;;;;;;-149.78;100.00;50389.31;5051620;28;20052;-69
2021/10/25 05:50:46;;;;;;;9.20;2.88;;;;;;;-149.78;100.00;50401.03;5061326;28;20031;-68
2021/10/25 05:53:12;;;;;;;16.88;2.65;;;;;;;-149.78;100.00;50432.31;5060482;28;20523;-69
2021/10/25 05:55:39;;;;;;;11.30;2.65;;;;;;;-149.78;100.00;50381.47;5061153;28;20024;-69
2021/10/25 05:58:09;;;;;;;11.63;2.97;;;;;;;-149.78;100.00;50365.84;5055242;28;20037;-69
2021/10/25 06:00:38;;;;;;;6.90;2.65;;;;;;;-149.78;100.00;50416.69;5054736;28;20040;-70
2021/10/25 06:03:04;;;;;;;14.45;3.25;;;;;;;-149.78;100.00;50412.78;5066188;28;20032;-66
2021/10/25 06:05:31;;;;;;;12.30;2.85;;;;;;;-149.78;100.00;50408.84;5064273;28;20029;-69
2021/10/25 06:07:57;;;;;;;10.32;2.95;;;;;;;-149.78;100.00;50428.41;5058799;28;20043;-69
2021/10/25 06:10:27;;;;;;;8.45;3.55;;;;;;;-149.78;100.00;50408.84;5061961;28;20042;-69
2021/10/25 06:12:53;;;;;;;15.40;2.92;;;;;;;-149.78;100.00;50430.38;5062197;28;20502;-69
2021/10/25 06:15:21;;;;;;;7.55;2.60;;;;;;;-149.78;100.00;50401.03;5064229;28;20028;-68
2021/10/25 06:17:56;;;;;;;12.10;2.72;;;;;;;-149.78;100.00;50383.44;5053659;28;20025;-68
2021/10/25 06:20:28;;;;;;;7.80;3.10;;;;;;;-149.78;100.00;50408.84;5055944;28;20033;-69
2021/10/25 06:22:54;;;;;;;12.60;2.67;;;;;;;-149.78;100.00;50408.84;5043838;28;20069;-69
2021/10/25 06:25:22;;;;;;;9.05;3.58;;;;;;;-149.78;100.00;50410.81;5056552;28;20459;-68
2021/10/25 06:27:49;;;;;;;12.15;3.03;;;;;;;-149.78;100.00;50432.31;5060867;28;20029;-68
2021/10/25 06:30:15;;;;;;;16.17;3.28;;;;;;;-149.78;100.00;50397.13;5059594;28;20107;-68
2021/10/25 06:32:41;;;;;;;10.75;3.42;;;;;;;-149.78;100.00;50408.84;5069937;28;20123;-68
2021/10/25 06:35:10;;;;;;;11.52;2.67;;;;;;;-149.78;100.00;50401.03;5062799;28;20059;-69
2021/10/25 06:37:50;;;;;;;20.65;3.33;;;;;;;-149.78;100.00;50408.84;5063749;28;20040;-69
2021/10/25 06:40:17;;;;;;;11.68;3.40;;;;;;;-149.78;100.00;50404.94;5054444;28;20086;-69
2021/10/25 06:42:43;;;;;;;12.18;3.22;;;;;;;-149.78;100.00;50444.06;5064573;28;20043;-69
2021/10/25 06:45:14;;;;;;;11.48;3.28;;;;;;;-149.78;100.00;50403.00;5066189;28;20033;-70
2021/10/25 06:47:40;;;;;;;21.50;3.17;;;;;;;-149.78;100.00;50418.63;5063797;28;20044;-69
2021/10/25 06:50:07;;;;;;;8.27;2.60;;;;;;;-149.78;100.00;50416.69;5063239;28;20047;-69
2021/10/25 06:52:33;;;;;;;8.02;2.55;;;;;;;-149.78;100.00;50401.03;5039788;28;20053;-69
2021/10/25 06:54:59;;;;;;;14.90;3.50;;;;;;;-149.78;100.00;50424.50;5065905;28;20074;-69
2021/10/25 06:57:25;;;;;;;11.48;2.83;;;;;;;-149.78;100.00;50453.84;5064495;28;20032;-68
2021/10/25 06:59:52;;;;;;;9.50;3.20;;;;;;;-149.78;100.00;50420.59;5070817;28;20039;-69
2021/10/25 07:02:19;;;;;;;9.13;2.70;;;;;;;-149.78;100.00;50420.59;5068109;28;20044;-69
2021/10/25 07:04:47;;;;;;;6.65;2.70;;;;;;;-149.78;100.00;50412.78;5045301;28;20032;-69
2021/10/25 07:07:13;;;;;;;11.95;3.03;;;;;;;-149.78;100.00;50481.22;5066838;28;20037;-69
2021/10/25 07:09:38;;;;;;;9.63;2.92;;;;;;;-149.78;100.00;50447.97;5059107;28;20465;-69
2021/10/25 07:12:05;;;;;;;11.30;3.08;;;;;;;-149.78;100.00;50455.81;5061017;28;20031;-69
2021/10/25 07:14:37;;;;;;;15.38;3.28;;;;;;;-149.78;100.00;50399.09;5085338;28;20120;-69
2021/10/25 07:17:16;;;;;;;12.15;3.33;;;;;;;-149.78;100.00;50451.88;5064470;28;20508;-69
2021/10/25 07:28:08;;;;;;;7.53;2.80;;;;;;;-149.78;100.00;50369.75;5058987;28;20033;-69
2021/10/25 08:10:48;;;;;;;11.95;3.13;;;;;;;-149.78;100.00;50373.66;5047607;28;20476;-75
2021/10/25 08:13:15;;;;;;;8.52;2.30;;;;;;;-149.78;100.00;50377.56;5062758;28;20037;-73
2021/10/25 08:15:45;;;;;;;9.70;2.60;;;;;;;-149.78;100.00;50381.47;5059900;28;20029;-73
2021/10/25 08:18:35;;;;;;;8.88;2.55;;;;;;;-149.78;100.00;50393.22;5057845;28;20031;-71
2021/10/25 08:21:00;;;;;;;7.78;2.50;;;;;;;-149.78;100.00;50389.31;5058637;28;20043;-73
2021/10/25 08:23:27;;;;;;;8.63;2.40;;;;;;;-149.78;100.00;50356.06;5070216;28;20381;-72
2021/10/25 08:25:53;;;;;;;9.55;2.20;;;;;;;-149.78;100.00;50322.81;5063703;28;20273;-72
2021/10/25 08:28:18;;;;;;;10.63;2.55;;;;;;;-149.78;100.00;50311.06;5066166;28;20059;-75
2021/10/25 08:30:45;;;;;;;5.55;1.98;;;;;;;-149.78;100.00;50299.34;5066699;28;20106;-74
2021/10/25 08:33:39;;;;;;;5.53;2.40;;;;;;;-149.78;100.00;50299.34;5070302;28;20025;-72
2021/10/25 08:41:23;;;;;;;6.65;2.28;;;;;;;-149.78;100.00;50277.81;5059386;28;20032;-71
2021/10/25 08:43:51;;;;;;;5.43;1.92;;;;;;;-149.78;100.00;50268.03;5061056;28;20029;-70
2021/10/25 08:46:18;;;;;;;7.90;1.83;;;;;;;-149.78;100.00;50201.56;5066834;28;20028;-70
2021/10/25 08:48:44;;;;;;;8.10;1.85;;;;;;;-149.78;100.00;50213.28;5066674;28;20074;-69
2021/10/25 08:51:14;;;;;;;6.15;2.00;;;;;;;-149.78;92.13;50201.56;5065716;28;20024;-68
2021/10/25 08:53:40;;;;;;;5.63;1.65;;;;;;;-149.78;86.11;50178.09;5065291;28;20045;-69
2021/10/25 08:56:06;;;;;;;5.07;1.42;;;;;;;-149.78;87.55;50225.03;5067871;28;20032;-69
2021/10/25 08:58:36;;;;;;;6.85;1.67;;;;;;;-149.78;98.17;50228.94;5069267;28;20033;-69
2021/10/25 09:01:02;;;;;;;5.80;1.45;;;;;;;-149.78;100.00;50258.28;5053712;28;20366;-68
2021/10/25 09:03:28;;;;;;;6.03;1.52;;;;;;;-149.78;100.00;50238.72;5061640;28;20174;-68
2021/10/25 09:05:58;;;;;;;7.10;2.08;;;;;;;-149.78;100.00;50287.59;5080767;28;20029;-69
2021/10/25 09:08:25;;;;;;;5.43;1.17;;;;;;;-149.78;100.00;50264.13;5062746;28;20119;-70
2021/10/25 09:10:51;;;;;;;5.15;1.60;;;;;;;-149.78;100.00;50244.59;5045397;28;20036;-70
2021/10/25 09:13:23;;;;;;;5.53;1.48;;;;;;;-149.78;100.00;50307.16;5061572;28;20051;-70
2021/10/25 09:15:55;;;;;;;6.88;1.40;;;;;;;-149.78;100.00;50291.50;5068897;28;20057;-67
2021/10/25 09:18:22;;;;;;;;;;;;;;;-149.78;100.00;50297.38;5061355;28;20029;-69
2021/10/25 09:21:01;;;;;;;6.30;1.50;;;;;;;-149.78;100.00;50279.78;5052012;28;19913;-69
2021/10/25 09:23:52;;;;;;;7.40;1.40;;;;;;;-149.78;100.00;50248.50;5052324;28;20033;-69
2021/10/25 09:26:25;;;;;;;5.95;1.25;;;;;;;-149.78;99.01;50217.19;5057323;28;20025;-72
2021/10/25 09:29:00;;;;;;;4.88;1.00;;;;;;;-149.78;81.07;50197.66;5062815;28;20020;-71
2021/10/25 09:31:31;;;;;;;2.88;0.98;;;;;;;-149.78;69.63;50170.25;5065801;28;20020;-71
2021/10/25 09:34:02;;;;;;;2.97;0.75;;;;;;;-149.78;62.72;50146.81;5061111;28;20028;-72
2021/10/25 09:36:37;;;;;;;2.17;0.90;;;;;;;-149.78;60.57;50138.97;5059262;28;20032;-73
2021/10/25 09:49:56;;;;;;;1.17;0.90;;;;;;;-149.78;60.80;50158.53;5054659;28;20033;-71
2021/10/25 09:52:30;;;;;;;3.58;1.25;;;;;;;-149.78;64.18;50168.31;5070172;28;20128;-75
2021/10/25 09:54:58;;;;;;;3.70;1.55;;;;;;;-149.78;63.71;50166.34;5068836;28;20039;-74
2021/10/25 09:57:34;;;;;;;2.90;1.23;;;;;;;-149.78;64.28;50170.25;5065547;28;20040;-75
2021/10/25 09:59:59;;;;;;;4.93;1.10;;;;;;;-149.78;64.25;50189.81;5059359;28;20063;-75
2021/10/25 10:02:25;;;;;;;3.83;1.27;;;;;;;-149.78;61.44;50160.50;5059679;28;20454;-75
2021/10/25 10:05:03;;;;;;;2.85;1.00;;;;;;;-149.78;58.05;50115.50;5038738;28;20036;-75
2021/10/25 10:07:29;;;;;;;3.03;1.20;;;;;;;-149.78;54.32;50115.50;5068422;28;20033;-75
2021/10/25 10:09:55;;;;;;;3.50;1.33;;;;;;;-149.78;54.12;50095.94;5026703;28;20041;-72
2021/10/25 10:12:24;;;;;;;2.60;1.10;;;;;;;-149.78;58.22;50115.50;5054957;28;20021;-75
2021/10/25 10:14:52;;;;;;;2.97;1.15;;;;;;;-149.78;64.26;50187.88;5050429;28;20034;-73
2021/10/25 10:17:27;;;;;;;2.25;0.88;;;;;;;-149.78;70.55;50217.19;5056844;28;20439;-74
2021/10/25 10:19:55;;;;;;;1.80;0.80;;;;;;;-149.78;80.05;50225.03;5052576;28;20061;-75
2021/10/25 10:22:23;;;;;;;4.10;1.42;;;;;;;-149.78;80.81;50240.66;5052529;28;20036;-77
2021/10/25 10:24:50;;;;;;;1.25;0.80;;;;;;;-149.78;78.33;50178.09;5050666;28;20036;-71
2021/10/25 10:27:21;;;;;;;2.15;1.10;;;;;;;-149.78;72.56;50232.84;5070902;28;20044;-71
2021/10/25 10:29:54;;;;;;;3.17;1.00;;;;;;;-149.78;73.04;50217.19;5064987;28;20444;-74
2021/10/25 10:32:21;;;;;;;4.10;1.52;;;;;;;-149.78;80.30;50240.66;5062766;28;20044;-74
2021/10/25 10:34:50;;;;;;;1.77;1.00;;;;;;;-149.78;90.25;50291.50;5066606;28;20036;-74
2021/10/25 10:37:21;;;;;;;2.38;1.00;;;;;;;-149.78;100.00;50285.66;5067265;28;20419;-72
2021/10/25 10:40:04;;;;;;;4.40;1.23;;;;;;;-149.78;100.00;50279.78;5055283;28;20131;-76
2021/10/25 10:42:32;;;;;;;2.08;1.10;;;;;;;-149.78;100.00;50305.22;5051545;28;20369;-73
2021/10/25 10:45:00;;;;;;;4.15;1.42;;;;;;;-149.78;100.00;50324.75;5052474;28;20074;-70
2021/10/25 10:47:31;;;;;;;3.25;1.33;;;;;;;-149.78;100.00;50295.44;5059056;28;20024;-75
2021/10/25 10:49:57;;;;;;;6.25;1.17;;;;;;;-149.78;100.00;50342.38;5057937;28;20044;-73
2021/10/25 10:52:32;;;;;;;5.07;1.08;;;;;;;-149.78;100.00;50299.34;5049107;28;20036;-70
2021/10/25 10:55:03;;;;;;;2.80;1.40;;;;;;;-149.78;100.00;50346.28;5050927;28;20043;-72
2021/10/25 11:00:39;;;;;;;4.85;1.50;;;;;;;-149.78;100.00;50334.53;5064758;28;20033;-71
2021/10/25 11:03:07;;;;;;;2.28;1.40;;;;;;;-149.78;100.00;50346.28;5067203;28;20495;-71
2021/10/25 11:05:38;;;;;;;1.80;0.88;;;;;;;-149.78;100.00;50309.13;5058277;28;20485;-72
2021/10/25 11:08:16;;;;;;;3.95;1.00;;;;;;;-149.78;100.00;50328.69;5066726;28;20033;-72
2021/10/25 11:10:45;;;;;;;2.83;0.77;;;;;;;-149.78;100.00;50291.50;5055306;28;20136;-72
2021/10/25 11:13:17;;;;;;;2.58;0.73;;;;;;;-149.78;89.89;50268.03;5063842;28;20158;-75
2021/10/25 11:16:11;;;;;;;;;;;;;;;-149.78;82.70;50228.94;5056297;28;20025;-75
2021/10/25 11:18:39;;;;;;;4.80;1.05;;;;;;;-149.78;75.30;50232.84;5066948;28;19948;-75
2021/10/25 11:21:11;;;;;;;2.40;0.90;;;;;;;-149.78;75.78;50205.47;5060464;28;20379;-75
2021/10/25 11:23:43;;;;;;;3.67;0.90;;;;;;;-149.78;74.58;50219.16;5061677;28;20033;-72
2021/10/25 11:26:23;;;;;;;1.95;0.93;;;;;;;-149.78;76.71;50223.06;5063747;28;20041;-72
2021/10/25 11:29:09;;;;;;;2.33;0.90;;;;;;;-149.78;75.19;50252.41;5065571;28;20036;-74
2021/10/25 11:31:42;;;;;;;2.28;0.90;;;;;;;-149.78;77.92;50268.03;5069225;28;20025;-72
2021/10/25 11:34:13;;;;;;;2.55;0.60;;;;;;;-149.78;80.01;50270.00;5055847;28;20028;-72
2021/10/25 11:36:53;;;;;;;2.00;0.70;;;;;;;-149.78;84.48;50281.75;5069684;28;20033;-72
2021/10/25 11:39:51;;;;;;;2.42;0.93;;;;;;;-149.78;90.02;50260.22;5055426;28;20033;-71
2021/10/25 11:42:19;;;;;;;1.27;0.70;;;;;;;-149.78;92.05;50295.44;5059855;28;20449;-72
2021/10/25 11:44:47;;;;;;;1.73;0.80;;;;;;;-149.78;94.59;50318.91;5072155;28;20036;-72
2021/10/25 11:47:41;;;;;;;1.90;0.70;;;;;;;-149.78;100.00;50295.44;5061234;28;20059;-73
2021/10/25 11:50:25;;;;;;;4.03;0.68;;;;;;;-149.78;100.00;50295.44;5067816;28;20098;-73
2021/10/25 11:52:55;;;;;;;4.68;0.77;;;;;;;-149.78;100.00;50314.97;5060024;28;20044;-73
2021/10/25 11:55:24;;;;;;;3.60;0.90;;;;;;;-149.78;100.00;50287.59;5066796;28;20033;-74
2021/10/25 11:58:04;;;;;;;0.52;0.45;;;;;;;-149.78;100.00;50326.72;5068276;28;20410;-74
2021/10/25 12:00:38;;;;;;;3.33;0.70;;;;;;;-149.78;100.00;50303.25;5064574;28;20124;-74
2021/10/25 12:03:17;;;;;;;3.83;1.20;;;;;;;-149.78;100.00;50291.50;5058293;28;20032;-74
2021/10/25 12:05:43;;;;;;;4.85;0.90;;;;;;;-149.78;100.00;50293.47;5062244;28;20029;-74
2021/10/25 12:08:11;;;;;;;5.30;1.70;;;;;;;-149.78;100.00;50318.91;5046713;28;20025;-74
2021/10/25 12:10:39;;;;;;;1.63;0.77;;;;;;;-149.78;100.00;50303.25;5061317;28;20055;-73
2021/10/25 12:13:07;;;;;;;5.38;0.90;;;;;;;-149.78;100.00;50342.38;5071185;28;20032;-73
2021/10/25 12:15:47;;;;;;;2.28;0.93;;;;;;;-149.78;100.00;50340.41;5065097;28;20036;-74
2021/10/25 12:18:19;;;;;;;5.45;0.80;;;;;;;-149.78;100.00;50338.44;5060539;28;20033;-74
2021/10/25 12:20:45;;;;;;;4.25;1.00;;;;;;;-149.78;100.00;50303.25;5062730;28;20120;-74
2021/10/25 12:23:16;;;;;;;7.05;1.05;;;;;;;-149.78;100.00;50334.53;5061708;28;20021;-74
2021/10/25 12:25:43;;;;;;;3.17;1.10;;;;;;;-149.78;100.00;50338.44;5057954;28;20446;-73
2021/10/25 12:28:14;;;;;;;1.92;1.00;;;;;;;-149.78;100.00;50342.38;5061274;28;20459;-74
2021/10/25 12:30:41;;;;;;;4.13;1.02;;;;;;;-149.78;100.00;50326.72;5064038;28;20037;-74
2021/10/25 12:33:06;;;;;;;3.88;0.60;;;;;;;-149.78;99.96;50307.16;5035105;28;20017;-74
2021/10/25 12:35:45;;;;;;;3.90;1.17;;;;;;;-149.78;97.17;50311.06;5054109;28;20029;-73
2021/10/25 12:38:17;;;;;;;7.05;1.00;;;;;;;-149.78;97.84;50334.53;5064590;28;20033;-73
2021/10/25 12:40:47;;;;;;;8.70;1.40;;;;;;;-149.78;94.28;50299.34;5070767;28;20082;-73
2021/10/25 12:43:14;;;;;;;2.55;0.80;;;;;;;-149.78;91.86;50330.63;5057636;28;20136;-73
2021/10/25 12:45:42;;;;;;;3.58;0.80;;;;;;;-149.78;93.94;50309.13;5053585;28;20036;-74
2021/10/25 12:48:10;;;;;;;4.70;0.80;;;;;;;-149.78;93.25;50307.16;5051469;28;20036;-74
2021/10/25 12:50:38;;;;;;;1.75;0.80;;;;;;;-149.78;89.21;50311.06;5053455;28;20549;-73
2021/10/25 12:53:10;;;;;;;4.25;0.98;;;;;;;-149.78;91.79;50314.97;5053573;28;20040;-73
2021/10/25 12:55:37;;;;;;;1.63;0.90;;;;;;;-149.78;91.63;50330.63;5069116;28;20043;-74
2021/10/25 12:58:12;;;;;;;3.47;1.25;;;;;;;-149.78;93.54;50283.69;5055042;28;20040;-73